Time;durP1;ratioP1;P1;durP2;ratioP2;P2;SDS_P1;SDS_P2;PMS_P1;PMS_P2;Temp;Humidity;BMP_temperature;BMP_pressure;BME280_temperature;BME280_humidity;BME280_pressure;Samples;Min_cycle;Max_cycle;Signal;HPM_P1;HPM_P2
2021/09/14 15:15:16;;;;;;;6.57;5.80;;;22.10;76.20;;;;;;5120228;27;20398;-61
2021/09/14 15:17:42;;;;;;;5.70;5.07;;;22.30;78.70;;;;;;5118821;27;20023;-61
2021/09/14 15:20:10;;;;;;;5.88;4.82;;;22.40;78.50;;;;;;5116375;27;20684;-61
2021/09/14 15:22:39;;;;;;;6.35;4.65;;;22.60;77.40;;;;;;5123997;27;20032;-62
2021/09/14 15:25:05;;;;;;;4.78;4.30;;;22.80;76.50;;;;;;5128488;28;20019;-59
2021/09/14 15:27:30;;;;;;;4.40;4.10;;;22.90;75.40;;;;;;5133569;27;20019;-59
2021/09/14 15:29:59;;;;;;;5.80;4.10;;;23.00;74.40;;;;;;5133739;27;20030;-59
2021/09/14 15:32:24;;;;;;;4.60;4.20;;;23.10;73.60;;;;;;5135543;27;20434;-59
2021/09/14 15:34:50;;;;;;;10.73;4.65;;;23.20;73.00;;;;;;5127038;27;20271;-60
2021/09/14 15:37:16;;;;;;;4.63;4.22;;;23.30;72.40;;;;;;5119014;27;20057;-60
2021/09/14 15:39:43;;;;;;;4.57;4.07;;;23.30;71.80;;;;;;5124166;27;20062;-59
2021/09/14 15:42:10;;;;;;;4.88;4.43;;;23.40;71.40;;;;;;5121341;27;20035;-57
2021/09/14 15:44:35;;;;;;;4.40;4.00;;;23.40;70.90;;;;;;5126920;27;20084;-60
2021/09/14 15:47:01;;;;;;;8.93;3.88;;;23.50;70.60;;;;;;5133670;27;20031;-59
2021/09/14 15:49:27;;;;;;;4.25;3.58;;;23.50;70.30;;;;;;5130832;27;20043;-60
2021/09/14 15:51:54;;;;;;;4.15;3.65;;;23.50;70.00;;;;;;5121679;27;20024;-59
2021/09/14 15:54:19;;;;;;;4.07;3.67;;;23.60;69.90;;;;;;5124996;27;20041;-59
2021/09/14 15:56:45;;;;;;;4.25;3.42;;;23.60;69.70;;;;;;5123246;27;20106;-59
2021/09/14 15:59:11;;;;;;;4.03;3.70;;;23.70;69.50;;;;;;5129814;27;20461;-60
2021/09/14 16:01:37;;;;;;;3.65;3.35;;;23.70;69.30;;;;;;5123633;27;20032;-58
2021/09/14 16:04:12;;;;;;;4.38;3.38;;;23.70;69.10;;;;;;5124910;27;20115;-59
2021/09/14 16:06:39;;;;;;;3.60;3.30;;;23.70;69.00;;;;;;5128065;27;20033;-60
2021/09/14 16:09:08;;;;;;;4.38;3.40;;;23.80;69.00;;;;;;5128121;27;20032;-60
2021/09/14 16:11:41;;;;;;;4.03;3.67;;;23.80;68.80;;;;;;5123012;27;20077;-60
2021/09/14 16:14:07;;;;;;;3.67;3.35;;;23.80;68.80;;;;;;5131367;27;20066;-61
2021/09/14 16:16:33;;;;;;;3.92;3.60;;;23.90;68.80;;;;;;5123472;27;20036;-60
2021/09/14 16:18:58;;;;;;;5.60;3.83;;;23.80;68.80;;;;;;5128033;27;20552;-62
2021/09/14 16:21:24;;;;;;;5.13;3.97;;;23.90;68.70;;;;;;5127231;27;20023;-63
2021/09/14 16:23:50;;;;;;;3.90;3.50;;;23.90;68.70;;;;;;5135497;27;20050;-62
2021/09/14 16:26:16;;;;;;;4.25;3.95;;;23.90;68.60;;;;;;5115727;27;20023;-60
2021/09/14 16:28:42;;;;;;;3.58;3.28;;;23.90;68.60;;;;;;5115800;27;20413;-60
2021/09/14 16:31:07;;;;;;;4.72;4.10;;;23.90;68.60;;;;;;5117246;27;20090;-60
2021/09/14 16:33:36;;;;;;;4.25;3.95;;;23.90;68.50;;;;;;5115000;27;20558;-60
2021/09/14 16:36:04;;;;;;;4.47;3.67;;;23.90;68.40;;;;;;5116719;27;20031;-60
2021/09/14 16:38:30;;;;;;;4.60;3.85;;;23.90;68.40;;;;;;5116300;27;20469;-60
2021/09/14 16:40:59;;;;;;;7.30;3.88;;;23.90;68.40;;;;;;5115278;27;20092;-60
2021/09/14 16:43:32;;;;;;;3.88;3.55;;;24.00;68.40;;;;;;5107251;27;20064;-60
2021/09/14 16:45:58;;;;;;;4.03;3.70;;;24.00;68.30;;;;;;5115952;27;20024;-60
2021/09/14 16:48:24;;;;;;;4.28;3.60;;;23.90;68.20;;;;;;5108032;27;20034;-60
2021/09/14 16:50:54;;;;;;;3.70;3.40;;;23.90;68.20;;;;;;5112814;27;20437;-60
2021/09/14 16:53:20;;;;;;;3.85;3.50;;;24.00;68.20;;;;;;5116850;27;20106;-60
2021/09/14 16:55:45;;;;;;;3.70;3.40;;;23.90;68.10;;;;;;5117998;27;20110;-60
2021/09/14 16:58:11;;;;;;;4.20;3.83;;;24.00;68.10;;;;;;5115471;27;20035;-60
2021/09/14 17:00:38;;;;;;;3.72;3.42;;;24.00;68.00;;;;;;5109887;27;20394;-63
2021/09/14 17:03:04;;;;;;;3.83;3.53;;;24.00;68.00;;;;;;5112754;27;20062;-63
2021/09/14 17:05:29;;;;;;;4.18;3.78;;;24.00;67.90;;;;;;5107937;27;20020;-60
2021/09/14 17:07:55;;;;;;;4.78;3.67;;;24.00;67.90;;;;;;5097989;28;20077;-62
2021/09/14 17:10:22;;;;;;;3.65;3.35;;;24.00;67.80;;;;;;5101511;28;20099;-60
2021/09/14 17:12:48;;;;;;;4.15;3.75;;;24.00;67.80;;;;;;5102965;28;20023;-60
2021/09/14 17:15:14;;;;;;;4.07;3.72;;;24.00;67.90;;;;;;5111886;27;20059;-61
2021/09/14 17:17:40;;;;;;;4.70;4.20;;;23.90;68.00;;;;;;5101045;27;20685;-61
2021/09/14 17:20:07;;;;;;;5.32;3.78;;;24.00;68.00;;;;;;5093167;28;20042;-61
2021/09/14 17:22:32;;;;;;;4.22;3.92;;;24.00;68.00;;;;;;5105974;28;20031;-61
2021/09/14 17:24:58;;;;;;;4.30;3.90;;;24.00;68.00;;;;;;5118787;27;20471;-61
2021/09/14 17:27:24;;;;;;;4.32;3.85;;;24.00;68.10;;;;;;5110163;27;20121;-61
2021/09/14 17:29:52;;;;;;;4.38;3.88;;;23.90;68.10;;;;;;5109306;28;20355;-61
2021/09/14 17:32:18;;;;;;;4.38;3.97;;;24.00;68.90;;;;;;5106452;28;20099;-61
2021/09/14 17:34:47;;;;;;;4.35;4.00;;;24.00;68.30;;;;;;5105011;28;20099;-60
2021/09/14 17:37:13;;;;;;;3.97;3.58;;;23.90;68.30;;;;;;5101419;27;20056;-61
2021/09/14 17:39:39;;;;;;;4.20;3.67;;;24.00;68.60;;;;;;5108840;27;20454;-62
2021/09/14 17:42:06;;;;;;;5.05;3.97;;;23.90;68.80;;;;;;5109256;27;20497;-62
2021/09/14 17:44:33;;;;;;;4.63;4.15;;;23.90;68.80;;;;;;5113434;27;20023;-62
2021/09/14 17:46:59;;;;;;;5.32;3.97;;;23.90;68.80;;;;;;5109822;27;20031;-62
2021/09/14 17:49:24;;;;;;;3.95;3.65;;;23.90;68.70;;;;;;5109791;27;20027;-63
2021/09/14 17:51:50;;;;;;;4.10;3.70;;;23.90;68.60;;;;;;5107739;27;20059;-63
2021/09/14 17:54:16;;;;;;;3.97;3.55;;;23.90;68.60;;;;;;5111083;27;20031;-62
2021/09/14 17:56:41;;;;;;;3.65;3.35;;;23.90;68.60;;;;;;5109602;27;20088;-62
2021/09/14 17:59:07;;;;;;;4.18;3.78;;;24.00;68.60;;;;;;5117060;27;20024;-62
2021/09/14 18:01:33;;;;;;;4.00;3.70;;;23.90;68.50;;;;;;5111094;27;20486;-62
2021/09/14 18:03:58;;;;;;;3.78;3.47;;;23.90;68.50;;;;;;5112815;27;20149;-62
2021/09/14 18:06:24;;;;;;;4.75;4.00;;;23.90;68.50;;;;;;5107601;27;20067;-63
2021/09/14 18:08:50;;;;;;;3.97;3.58;;;23.90;68.40;;;;;;5114728;27;20057;-63
2021/09/14 18:11:15;;;;;;;3.88;3.58;;;23.90;68.40;;;;;;5112556;27;20519;-62
2021/09/14 18:13:41;;;;;;;4.10;3.70;;;23.90;68.40;;;;;;5097191;27;20108;-63
2021/09/14 18:16:07;;;;;;;3.80;3.50;;;23.90;68.30;;;;;;5106450;27;20383;-63
2021/09/14 18:18:32;;;;;;;4.50;3.75;;;23.90;68.20;;;;;;5111124;27;20130;-62
2021/09/14 18:20:58;;;;;;;3.88;3.58;;;23.90;68.20;;;;;;5107317;28;20035;-68
2021/09/14 18:23:24;;;;;;;3.85;3.55;;;23.90;68.20;;;;;;5108818;27;20039;-63
2021/09/14 18:25:49;;;;;;;3.83;3.53;;;23.90;68.20;;;;;;5110445;27;20019;-62
2021/09/14 18:28:15;;;;;;;3.70;3.40;;;23.90;68.20;;;;;;5114273;27;20028;-63
2021/09/14 18:30:41;;;;;;;3.92;3.33;;;23.90;68.20;;;;;;5118596;27;20441;-63
2021/09/14 18:33:06;;;;;;;3.53;3.33;;;23.90;68.20;;;;;;5106662;27;20035;-63
2021/09/14 18:35:32;;;;;;;3.40;3.10;;;23.90;68.10;;;;;;5109571;27;20034;-63
2021/09/14 18:37:57;;;;;;;4.15;3.85;;;23.90;68.10;;;;;;5111424;27;20027;-62
2021/09/14 18:40:23;;;;;;;3.70;3.40;;;23.90;68.20;;;;;;5109437;27;20036;-62
2021/09/14 18:42:50;;;;;;;3.53;3.22;;;23.90;68.10;;;;;;5109184;27;20067;-63
2021/09/14 18:45:16;;;;;;;3.90;3.60;;;23.90;68.10;;;;;;5110696;27;20097;-62
2021/09/14 18:47:42;;;;;;;3.70;3.40;;;23.90;68.10;;;;;;5103899;28;20077;-62
2021/09/14 18:50:08;;;;;;;4.03;3.67;;;23.90;68.10;;;;;;5105276;28;20031;-62
2021/09/14 18:52:34;;;;;;;3.75;3.45;;;23.90;68.10;;;;;;5106857;28;20055;-63
2021/09/14 18:55:00;;;;;;;3.22;3.03;;;23.90;68.20;;;;;;5101157;28;20062;-63
2021/09/14 18:57:25;;;;;;;3.75;3.38;;;23.90;68.20;;;;;;5106271;28;20423;-62
2021/09/14 18:59:51;;;;;;;3.70;3.40;;;23.80;68.20;;;;;;5093367;28;20027;-62
2021/09/14 19:02:18;;;;;;;3.80;3.50;;;23.80;68.20;;;;;;5104697;28;20067;-62
2021/09/14 19:04:44;;;;;;;3.58;3.35;;;23.80;68.20;;;;;;5099735;28;20425;-62
2021/09/14 19:07:10;;;;;;;3.47;3.17;;;23.80;68.20;;;;;;5091374;28;20279;-62
2021/09/14 19:09:35;;;;;;;4.50;3.45;;;23.80;68.80;;;;;;5088462;28;20043;-62
2021/09/14 19:12:02;;;;;;;3.70;3.45;;;23.80;68.20;;;;;;5095203;28;20035;-62
2021/09/14 19:14:28;;;;;;;3.50;3.20;;;23.80;68.20;;;;;;5106112;28;20055;-62
2021/09/14 19:16:54;;;;;;;3.75;3.45;;;23.80;68.20;;;;;;5099357;28;20027;-62
2021/09/14 19:19:20;;;;;;;3.60;3.30;;;23.80;68.10;;;;;;5100332;28;20077;-62
2021/09/14 19:21:45;;;;;;;3.67;3.38;;;23.80;68.10;;;;;;5091074;28;20032;-62
2021/09/14 19:24:12;;;;;;;3.80;3.50;;;23.80;68.00;;;;;;5093140;28;20030;-62
2021/09/14 19:26:40;;;;;;;3.65;3.17;;;23.80;68.70;;;;;;5102606;28;20416;-62
2021/09/14 19:29:06;;;;;;;4.30;3.45;;;23.80;68.10;;;;;;5094037;28;20055;-62
2021/09/14 19:31:32;;;;;;;4.07;3.78;;;23.80;68.10;;;;;;5093138;28;20914;-62
2021/09/14 19:33:58;;;;;;;3.53;3.33;;;23.80;68.10;;;;;;5094816;28;20070;-62
2021/09/14 19:36:24;;;;;;;3.70;3.40;;;23.80;68.10;;;;;;5093991;28;20114;-62
2021/09/14 19:38:50;;;;;;;3.40;3.10;;;23.80;68.10;;;;;;5102224;28;20470;-62
2021/09/14 19:41:15;;;;;;;3.70;3.40;;;23.80;68.10;;;;;;5104029;28;20024;-62
2021/09/14 19:43:41;;;;;;;3.85;3.55;;;23.80;68.10;;;;;;5098447;28;20482;-62
2021/09/14 19:46:07;;;;;;;4.28;3.63;;;23.80;68.10;;;;;;5091232;28;20031;-62
2021/09/14 19:48:32;;;;;;;3.75;3.45;;;23.80;68.70;;;;;;5091632;28;20165;-62
2021/09/14 19:50:59;;;;;;;3.70;3.40;;;23.80;68.00;;;;;;5101102;28;20024;-63
2021/09/14 19:53:25;;;;;;;3.60;3.30;;;23.80;68.00;;;;;;5094056;28;20050;-62
2021/09/14 19:55:51;;;;;;;3.63;3.33;;;23.80;68.00;;;;;;5103881;28;20460;-62
2021/09/14 19:58:17;;;;;;;3.67;3.38;;;23.80;68.00;;;;;;5099903;28;20103;-62
2021/09/14 20:00:42;;;;;;;3.85;3.55;;;23.80;68.00;;;;;;5104925;28;20047;-62
2021/09/14 20:03:08;;;;;;;4.55;3.35;;;23.80;68.70;;;;;;5113938;27;20107;-62
2021/09/14 20:05:34;;;;;;;4.63;4.05;;;23.80;68.00;;;;;;5103871;28;20027;-62
2021/09/14 20:07:59;;;;;;;3.50;3.30;;;23.80;68.10;;;;;;5101828;28;20012;-62
2021/09/14 20:10:25;;;;;;;3.90;3.50;;;23.80;68.00;;;;;;5100547;28;20032;-63
2021/09/14 20:12:51;;;;;;;3.80;3.50;;;23.80;68.70;;;;;;5115171;27;20047;-62
2021/09/14 20:15:20;;;;;;;3.80;3.50;;;23.80;68.00;;;;;;5104136;28;20032;-62
2021/09/14 20:17:46;;;;;;;3.65;3.35;;;23.70;67.90;;;;;;5108420;28;20020;-62
2021/09/14 20:20:13;;;;;;;3.63;3.33;;;23.70;67.90;;;;;;5102481;28;20028;-62
2021/09/14 20:22:38;;;;;;;3.85;3.50;;;23.80;68.00;;;;;;5101744;28;20035;-62
2021/09/14 20:25:05;;;;;;;4.30;3.90;;;23.70;67.90;;;;;;5102223;28;20031;-61
2021/09/14 20:27:32;;;;;;;3.80;3.50;;;23.80;67.90;;;;;;5107681;27;20111;-62
2021/09/14 20:29:59;;;;;;;3.92;3.63;;;23.80;68.00;;;;;;5105858;28;20600;-64
2021/09/14 20:32:25;;;;;;;3.72;3.42;;;23.80;68.10;;;;;;5106093;28;20356;-61
2021/09/14 20:34:51;;;;;;;4.00;3.63;;;23.80;68.70;;;;;;5103078;28;20043;-66
2021/09/14 20:37:17;;;;;;;4.18;3.78;;;23.80;68.10;;;;;;5103032;28;20096;-66
2021/09/14 20:39:43;;;;;;;3.80;3.50;;;23.80;68.20;;;;;;5093342;28;20364;-66
2021/09/14 20:42:08;;;;;;;4.30;3.90;;;23.80;68.20;;;;;;5097459;28;20059;-66
2021/09/14 20:44:34;;;;;;;4.03;3.72;;;23.80;68.20;;;;;;5099615;28;20115;-66
2021/09/14 20:47:00;;;;;;;3.97;3.67;;;23.80;68.30;;;;;;5095637;28;20024;-67
2021/09/14 20:49:25;;;;;;;3.83;3.53;;;23.80;68.20;;;;;;5108443;28;20050;-66
2021/09/14 20:51:51;;;;;;;3.60;3.30;;;23.80;68.20;;;;;;5098691;28;20404;-66
2021/09/14 20:54:17;;;;;;;3.65;3.38;;;23.70;68.10;;;;;;5092665;28;20085;-66
2021/09/14 20:56:43;;;;;;;3.95;3.65;;;23.70;68.10;;;;;;5099520;28;20040;-66
2021/09/14 20:59:09;;;;;;;4.18;3.10;;;23.80;68.10;;;;;;5095083;28;20043;-67
2021/09/14 21:01:35;;;;;;;3.70;3.45;;;23.80;68.60;;;;;;5092734;28;20028;-66
2021/09/14 21:04:00;;;;;;;4.03;3.63;;;23.70;67.90;;;;;;5100333;28;20054;-64
2021/09/14 21:06:26;;;;;;;3.17;2.97;;;23.80;68.10;;;;;;5104129;28;20024;-65
2021/09/14 21:08:52;;;;;;;3.78;3.38;;;23.80;68.00;;;;;;5103339;27;20099;-65
2021/09/14 21:11:18;;;;;;;3.70;3.40;;;23.80;68.00;;;;;;5097110;28;20070;-65
2021/09/14 21:13:44;;;;;;;3.72;3.42;;;23.80;67.90;;;;;;5102981;28;20051;-65
2021/09/14 21:16:09;;;;;;;3.60;3.30;;;23.70;67.90;;;;;;5105844;28;20039;-65
2021/09/14 21:18:35;;;;;;;3.38;3.17;;;23.70;67.80;;;;;;5098569;28;20028;-65
2021/09/14 21:21:02;;;;;;;3.30;3.10;;;23.70;67.80;;;;;;5101506;28;20110;-65
2021/09/14 21:23:27;;;;;;;3.60;3.30;;;23.80;67.90;;;;;;5096113;28;20390;-64
2021/09/14 21:25:53;;;;;;;3.30;3.10;;;23.70;67.80;;;;;;5097439;28;20024;-64
2021/09/14 21:28:19;;;;;;;3.55;3.28;;;23.70;67.80;;;;;;5100127;28;20467;-64
2021/09/14 21:30:45;;;;;;;3.35;3.10;;;23.70;67.70;;;;;;5106941;28;20107;-64
2021/09/14 21:33:10;;;;;;;3.35;3.10;;;23.70;67.70;;;;;;5104372;27;20428;-68
2021/09/14 21:35:36;;;;;;;3.63;3.30;;;23.70;67.70;;;;;;5105639;28;20040;-68
2021/09/14 21:38:02;;;;;;;3.25;3.05;;;23.70;67.70;;;;;;5101345;28;20054;-68
2021/09/14 21:40:30;;;;;;;3.58;3.28;;;23.70;67.80;;;;;;5109242;28;20027;-68
2021/09/14 21:42:56;;;;;;;3.85;3.20;;;23.70;67.80;;;;;;5099424;28;20099;-68
2021/09/14 21:45:24;;;;;;;3.40;3.10;;;23.70;67.70;;;;;;5102198;28;20111;-68
2021/09/14 21:47:50;;;;;;;3.47;3.17;;;23.70;67.70;;;;;;5093870;28;20027;-68
2021/09/14 21:50:18;;;;;;;3.40;3.20;;;23.70;68.30;;;;;;5099292;28;20035;-68
2021/09/14 21:52:44;;;;;;;3.53;3.22;;;23.70;67.70;;;;;;5104190;27;20016;-68
2021/09/14 21:55:11;;;;;;;4.25;3.60;;;23.70;67.60;;;;;;5106364;28;20034;-68
2021/09/14 21:57:36;;;;;;;3.53;3.22;;;23.70;67.70;;;;;;5107990;28;20114;-68
2021/09/14 22:00:06;;;;;;;3.28;3.08;;;23.70;67.50;;;;;;5107299;28;20600;-68
2021/09/14 22:02:32;;;;;;;3.50;3.30;;;23.70;67.50;;;;;;5108074;28;20521;-68
2021/09/14 22:04:57;;;;;;;3.35;3.15;;;23.70;67.50;;;;;;5105147;28;20172;-68
2021/09/14 22:07:23;;;;;;;3.47;3.20;;;23.70;67.50;;;;;;5106899;28;20062;-68
2021/09/14 22:09:49;;;;;;;3.42;3.13;;;23.70;68.00;;;;;;5109010;28;20161;-68
2021/09/14 22:12:14;;;;;;;3.22;3.03;;;23.70;67.40;;;;;;5108725;28;20500;-68
2021/09/14 22:14:40;;;;;;;3.28;2.97;;;23.70;67.40;;;;;;5108954;27;20039;-68
2021/09/14 22:17:05;;;;;;;3.08;2.88;;;23.70;67.40;;;;;;5106608;28;20111;-68
2021/09/14 22:19:31;;;;;;;3.10;2.80;;;23.70;67.40;;;;;;5106504;27;20149;-68
2021/09/14 22:21:57;;;;;;;3.15;2.85;;;23.70;67.40;;;;;;5105282;28;20089;-68
2021/09/14 22:24:23;;;;;;;3.10;2.90;;;23.70;67.40;;;;;;5102849;28;20165;-68
2021/09/14 22:26:48;;;;;;;2.88;2.67;;;23.70;67.40;;;;;;5109466;27;20794;-68
2021/09/14 22:29:14;;;;;;;3.58;3.30;;;23.70;67.30;;;;;;5106244;27;20028;-68
2021/09/14 22:31:39;;;;;;;3.30;3.10;;;23.70;67.30;;;;;;5096973;28;20119;-68
2021/09/14 22:34:05;;;;;;;3.17;2.97;;;23.60;67.20;;;;;;5094075;28;20035;-68
2021/09/14 22:36:30;;;;;;;2.90;2.70;;;23.70;67.30;;;;;;5100664;28;20038;-68
2021/09/14 22:38:56;;;;;;;3.17;2.97;;;23.70;67.30;;;;;;5102064;28;20043;-68
2021/09/14 22:41:22;;;;;;;3.58;3.28;;;23.60;67.20;;;;;;5101117;28;20039;-68
2021/09/14 22:43:47;;;;;;;3.47;3.17;;;23.60;67.20;;;;;;5105430;28;20028;-68
2021/09/14 22:46:13;;;;;;;3.08;2.78;;;23.70;67.30;;;;;;5102625;28;20428;-68
2021/09/14 22:48:38;;;;;;;3.70;3.38;;;23.70;67.30;;;;;;5101663;28;20521;-68
2021/09/14 22:51:05;;;;;;;3.08;2.88;;;23.70;67.20;;;;;;5100002;28;20031;-68
2021/09/14 22:53:30;;;;;;;3.33;3.03;;;23.60;67.10;;;;;;5106676;28;20031;-68
2021/09/14 22:55:56;;;;;;;3.15;2.95;;;23.70;67.20;;;;;;5099883;28;20044;-68
2021/09/14 22:58:21;;;;;;;2.92;2.72;;;23.60;67.10;;;;;;5094639;28;20095;-68
2021/09/14 23:00:47;;;;;;;3.20;3.00;;;23.60;67.10;;;;;;5097595;28;20110;-68
2021/09/14 23:03:13;;;;;;;2.92;2.72;;;23.60;67.10;;;;;;5094969;28;20546;-68
2021/09/14 23:05:38;;;;;;;3.25;3.05;;;23.60;67.10;;;;;;5092188;28;20051;-68
2021/09/14 23:08:04;;;;;;;3.10;2.90;;;23.60;67.10;;;;;;5106425;28;20115;-68
2021/09/14 23:10:29;;;;;;;2.75;2.55;;;23.60;67.10;;;;;;5107403;28;20460;-68
2021/09/14 23:12:55;;;;;;;3.08;2.85;;;23.60;67.10;;;;;;5106913;28;20019;-68
2021/09/14 23:15:22;;;;;;;3.10;2.90;;;23.60;67.10;;;;;;5107670;28;20466;-68
2021/09/14 23:17:48;;;;;;;3.40;2.95;;;23.60;67.00;;;;;;5107247;28;20027;-68
2021/09/14 23:20:14;;;;;;;3.58;3.33;;;23.60;67.00;;;;;;5108169;28;20368;-68
2021/09/14 23:22:41;;;;;;;2.85;2.65;;;23.60;67.00;;;;;;5105285;28;20099;-68
2021/09/14 23:25:08;;;;;;;2.88;2.67;;;23.60;67.00;;;;;;5104153;28;20092;-68
2021/09/14 23:27:34;;;;;;;3.88;3.58;;;23.60;67.00;;;;;;5107052;28;20091;-68
2021/09/14 23:30:00;;;;;;;2.90;2.70;;;23.60;67.00;;;;;;5107859;28;20506;-68
2021/09/14 23:32:25;;;;;;;3.15;2.90;;;23.60;67.00;;;;;;5108703;28;20035;-68
2021/09/14 23:34:51;;;;;;;3.17;2.90;;;23.60;66.90;;;;;;5104500;28;20024;-68
2021/09/14 23:37:17;;;;;;;2.95;2.75;;;23.60;66.90;;;;;;5110798;28;20127;-68
2021/09/14 23:39:42;;;;;;;2.85;2.65;;;23.60;66.90;;;;;;5112653;28;20105;-68
2021/09/14 23:42:08;;;;;;;2.75;2.55;;;23.60;66.90;;;;;;5112148;28;20032;-68
2021/09/14 23:44:34;;;;;;;3.00;2.80;;;23.60;67.10;;;;;;5112166;28;20038;-68
2021/09/14 23:47:01;;;;;;;3.35;3.15;;;23.60;66.90;;;;;;5111671;28;20390;-68
2021/09/14 23:49:27;;;;;;;3.70;3.40;;;23.60;66.90;;;;;;5112238;28;20110;-68
2021/09/14 23:51:52;;;;;;;3.10;2.90;;;23.60;66.90;;;;;;5111644;28;20102;-67
2021/09/14 23:54:18;;;;;;;3.20;3.00;;;23.60;66.90;;;;;;5111351;28;20475;-67
2021/09/14 23:56:43;;;;;;;2.80;2.60;;;23.60;66.80;;;;;;5111265;28;20051;-67
2021/09/14 23:59:09;;;;;;;2.97;2.78;;;23.60;66.90;;;;;;5113201;28;20123;-67
